createdAt,value
2023-05-22T00:00:47.404Z,94631.00
2023-05-22T00:01:47.456Z,94633.00
2023-05-22T00:02:47.489Z,94640.00
2023-05-22T00:03:47.384Z,94631.00
2023-05-22T00:04:47.482Z,94633.00
2023-05-22T00:05:47.367Z,94642.00
2023-05-22T00:06:47.376Z,94633.00
2023-05-22T00:07:47.412Z,94631.00
2023-05-22T00:08:47.385Z,94629.00
2023-05-22T00:09:47.404Z,94629.00
2023-05-22T00:10:47.426Z,94627.00
2023-05-22T00:11:47.448Z,94623.00
2023-05-22T00:12:47.382Z,94623.00
2023-05-22T00:13:47.381Z,94625.00
2023-05-22T00:14:47.448Z,94621.00
2023-05-22T00:15:47.456Z,94623.00
2023-05-22T00:16:47.541Z,94623.00
2023-05-22T00:17:47.594Z,94617.00
2023-05-22T00:18:47.617Z,94615.00
2023-05-22T00:19:47.576Z,94617.00
2023-05-22T00:20:47.576Z,94619.00
2023-05-22T00:21:47.572Z,94619.00
2023-05-22T00:22:47.583Z,94617.00
2023-05-22T00:23:47.617Z,94617.00
2023-05-22T00:24:47.606Z,94621.00
2023-05-22T00:25:47.623Z,94619.00
2023-05-22T00:26:47.626Z,94623.00
2023-05-22T00:27:47.623Z,94623.00
2023-05-22T00:28:47.640Z,94621.00
2023-05-22T00:29:47.648Z,94621.00
2023-05-22T00:30:47.616Z,94625.00
2023-05-22T00:31:47.608Z,94623.00
2023-05-22T00:32:47.643Z,94623.00
2023-05-22T00:33:47.620Z,94623.00
2023-05-22T00:34:47.784Z,94621.00
2023-05-22T00:35:47.654Z,94621.00
2023-05-22T00:36:47.589Z,94621.00
2023-05-22T00:37:47.620Z,94625.00
2023-05-22T00:38:47.601Z,94625.00
2023-05-22T00:39:47.609Z,94625.00
2023-05-22T00:40:47.616Z,94625.00
2023-05-22T00:41:47.620Z,94625.00
2023-05-22T00:42:47.630Z,94625.00
2023-05-22T00:43:47.653Z,94625.00
2023-05-22T00:44:47.635Z,94625.00
2023-05-22T00:45:47.651Z,94625.00
2023-05-22T00:46:47.790Z,94627.00
2023-05-22T00:47:47.671Z,94625.00
2023-05-22T00:48:47.673Z,94629.00
2023-05-22T00:49:47.697Z,94629.00
2023-05-22T00:50:47.679Z,94629.00
2023-05-22T00:51:47.649Z,94631.00
2023-05-22T00:52:47.685Z,94629.00
2023-05-22T00:53:47.664Z,94631.00
2023-05-22T00:54:47.681Z,94627.00
2023-05-22T00:55:47.673Z,94629.00
2023-05-22T00:56:47.644Z,94631.00
2023-05-22T00:57:47.697Z,94633.00
2023-05-22T00:58:47.691Z,94629.00
2023-05-22T00:59:47.710Z,94627.00
2023-05-22T01:00:47.725Z,94627.00
2023-05-22T01:01:47.740Z,94629.00
2023-05-22T01:02:47.829Z,94629.00
2023-05-22T01:03:47.897Z,94627.00
2023-05-22T01:04:47.750Z,94629.00
2023-05-22T01:05:47.749Z,94629.00
2023-05-22T01:06:47.806Z,94631.00
2023-05-22T01:07:47.772Z,94631.00
2023-05-22T01:08:47.716Z,94631.00
2023-05-22T01:09:47.717Z,94631.00
2023-05-22T01:10:47.673Z,94631.00
2023-05-22T01:11:47.719Z,94633.00
2023-05-22T01:12:47.743Z,94631.00
2023-05-22T01:13:47.742Z,94633.00
2023-05-22T01:14:47.752Z,94642.00
2023-05-22T01:15:47.852Z,94642.00
2023-05-22T01:16:47.849Z,94640.00
2023-05-22T01:17:47.820Z,94640.00
2023-05-22T01:18:47.791Z,94644.00
2023-05-22T01:19:47.826Z,94642.00
2023-05-22T01:20:48.763Z,94646.00
2023-05-22T01:21:47.758Z,94646.00
2023-05-22T01:22:47.773Z,94646.00
2023-05-22T01:23:47.767Z,94644.00
2023-05-22T01:24:47.777Z,94646.00
2023-05-22T01:25:47.790Z,94640.00
2023-05-22T01:26:47.788Z,94640.00
2023-05-22T01:27:47.755Z,94648.00
2023-05-22T01:28:47.740Z,94640.00
2023-05-22T01:29:47.854Z,94642.00
2023-05-22T01:30:47.824Z,94640.00
2023-05-22T01:31:47.786Z,94642.00
2023-05-22T01:32:47.931Z,94644.00
2023-05-22T01:33:47.973Z,94646.00
2023-05-22T01:34:47.804Z,94648.00
2023-05-22T01:35:47.799Z,94646.00
2023-05-22T01:36:47.801Z,94646.00
2023-05-22T01:37:47.814Z,94648.00
2023-05-22T01:38:47.820Z,94648.00
2023-05-22T01:39:47.828Z,94652.00
2023-05-22T01:40:47.830Z,94656.00
2023-05-22T01:41:47.833Z,94654.00
2023-05-22T01:42:47.850Z,94652.00
2023-05-22T01:43:47.852Z,94654.00
2023-05-22T01:44:47.849Z,94656.00
2023-05-22T01:45:47.890Z,94654.00
2023-05-22T01:46:47.868Z,94654.00
2023-05-22T01:47:47.900Z,94656.00
2023-05-22T01:48:47.909Z,94658.00
2023-05-22T01:49:47.948Z,94658.00
2023-05-22T01:50:48.127Z,94660.00
2023-05-22T01:51:47.963Z,94662.00
2023-05-22T01:52:47.967Z,94662.00
2023-05-22T01:53:47.964Z,94664.00
2023-05-22T01:54:47.982Z,94660.00
2023-05-22T01:55:47.952Z,94662.00
2023-05-22T01:56:48.004Z,94664.00
2023-05-22T01:57:48.011Z,94660.00
2023-05-22T01:58:48.023Z,94664.00
2023-05-22T01:59:48.066Z,94664.00
2023-05-22T02:00:48.052Z,94664.00
2023-05-22T02:01:48.112Z,94664.00
2023-05-22T02:02:48.209Z,94662.00
2023-05-22T02:03:48.155Z,94662.00
2023-05-22T02:04:48.094Z,94664.00
2023-05-22T02:05:48.111Z,94664.00
2023-05-22T02:06:48.129Z,94666.00
2023-05-22T02:07:48.121Z,94666.00
2023-05-22T02:08:48.112Z,94664.00
2023-05-22T02:09:48.123Z,94664.00
2023-05-22T02:10:48.202Z,94664.00
2023-05-22T02:11:48.200Z,94670.00
2023-05-22T02:12:48.155Z,94668.00
2023-05-22T02:13:48.165Z,94674.00
2023-05-22T02:14:48.241Z,94670.00
2023-05-22T02:15:48.260Z,94668.00
2023-05-22T02:16:48.245Z,94666.00
2023-05-22T02:17:48.273Z,94668.00
2023-05-22T02:18:48.247Z,94666.00
2023-05-22T02:19:48.270Z,94670.00
2023-05-22T02:20:48.269Z,94664.00
2023-05-22T02:21:48.272Z,94662.00
2023-05-22T02:22:48.275Z,94662.00
2023-05-22T02:23:48.288Z,94660.00
2023-05-22T02:24:48.336Z,94660.00
2023-05-22T02:25:48.308Z,94660.00
2023-05-22T02:26:48.348Z,94660.00
2023-05-22T02:27:48.356Z,94658.00
2023-05-22T02:28:48.369Z,94660.00
2023-05-22T02:29:48.369Z,94660.00
2023-05-22T02:30:48.401Z,94660.00
2023-05-22T02:31:48.564Z,94658.00
2023-05-22T02:32:48.471Z,94660.00
2023-05-22T02:33:48.432Z,94660.00
2023-05-22T02:34:48.455Z,94660.00
2023-05-22T02:35:48.501Z,94662.00
2023-05-22T02:36:48.514Z,94662.00
2023-05-22T02:37:48.519Z,94662.00
2023-05-22T02:38:48.673Z,94666.00
2023-05-22T02:39:48.556Z,94664.00
2023-05-22T02:40:48.515Z,94664.00
2023-05-22T02:41:48.575Z,94660.00
2023-05-22T02:42:48.572Z,94664.00
2023-05-22T02:43:48.577Z,94664.00
2023-05-22T02:44:48.636Z,94664.00
2023-05-22T02:45:48.640Z,94664.00
2023-05-22T02:46:48.722Z,94664.00
2023-05-22T02:47:48.667Z,94668.00
2023-05-22T02:48:48.659Z,94670.00
2023-05-22T02:49:48.726Z,94668.00
2023-05-22T02:50:48.724Z,94666.00
2023-05-22T02:51:48.721Z,94662.00
2023-05-22T02:52:48.740Z,94666.00
2023-05-22T02:53:48.735Z,94668.00
2023-05-22T02:54:48.747Z,94672.00
2023-05-22T02:55:48.762Z,94670.00
2023-05-22T02:56:48.781Z,94672.00
2023-05-22T02:57:48.843Z,94670.00
2023-05-22T02:58:48.780Z,94670.00
2023-05-22T02:59:48.841Z,94674.00
2023-05-22T03:00:48.858Z,94678.00
2023-05-22T03:01:48.888Z,94678.00
2023-05-22T03:02:48.910Z,94674.00
2023-05-22T03:03:49.024Z,94679.00
2023-05-22T03:04:48.914Z,94676.00
2023-05-22T03:05:48.923Z,94674.00
2023-05-22T03:06:48.926Z,94672.00
2023-05-22T03:07:49.043Z,94672.00
2023-05-22T03:08:48.940Z,94674.00
2023-05-22T03:09:49.038Z,94672.00
2023-05-22T03:10:49.035Z,94674.00
2023-05-22T03:11:49.065Z,94676.00
2023-05-22T03:12:49.038Z,94676.00
2023-05-22T03:13:49.036Z,94676.00
2023-05-22T03:14:49.091Z,94674.00
2023-05-22T03:15:49.102Z,94678.00
2023-05-22T03:16:49.246Z,94676.00
2023-05-22T03:17:49.227Z,94674.00
2023-05-22T03:18:49.205Z,94674.00
2023-05-22T03:19:49.184Z,94672.00
2023-05-22T03:20:49.186Z,94670.00
2023-05-22T03:21:49.208Z,94670.00
2023-05-22T03:22:49.245Z,94670.00
2023-05-22T03:23:49.257Z,94672.00
2023-05-22T03:24:49.258Z,94672.00
2023-05-22T03:25:49.274Z,94672.00
2023-05-22T03:26:49.309Z,94672.00
2023-05-22T03:27:49.343Z,94672.00
2023-05-22T03:28:49.332Z,94672.00
2023-05-22T03:29:49.364Z,94672.00
2023-05-22T03:30:49.359Z,94672.00
2023-05-22T03:31:49.368Z,94672.00
2023-05-22T03:32:49.455Z,94670.00
2023-05-22T03:33:49.462Z,94670.00
2023-05-22T03:34:49.423Z,94670.00
2023-05-22T03:35:49.447Z,94670.00
2023-05-22T03:36:49.476Z,94668.00
2023-05-22T03:37:49.513Z,94664.00
2023-05-22T03:38:49.519Z,94664.00
2023-05-22T03:39:49.567Z,94666.00
2023-05-22T03:40:49.577Z,94666.00
2023-05-22T03:41:49.580Z,94664.00
2023-05-22T03:42:49.634Z,94664.00
2023-05-22T03:43:49.601Z,94662.00
2023-05-22T03:44:49.598Z,94660.00
2023-05-22T03:45:49.728Z,94664.00
2023-05-22T03:46:49.724Z,94664.00
2023-05-22T03:47:49.767Z,94672.00
2023-05-22T03:48:49.734Z,94668.00
2023-05-22T03:49:49.731Z,94666.00
2023-05-22T03:50:49.776Z,94664.00
2023-05-22T03:51:49.767Z,94660.00
2023-05-22T03:52:49.803Z,94664.00
2023-05-22T03:53:49.833Z,94666.00
2023-05-22T03:54:49.828Z,94666.00
2023-05-22T03:55:49.841Z,94668.00
2023-05-22T03:56:49.899Z,94668.00
2023-05-22T03:57:49.850Z,94668.00
2023-05-22T03:58:49.864Z,94670.00
2023-05-22T03:59:49.868Z,94674.00
2023-05-22T04:00:49.919Z,94674.00
2023-05-22T04:01:49.978Z,94699.00
2023-05-22T04:02:50.107Z,94695.00
2023-05-22T04:03:50.090Z,94693.00
2023-05-22T04:04:50.155Z,94693.00
2023-05-22T04:05:50.210Z,94693.00
2023-05-22T04:06:50.231Z,94693.00
2023-05-22T04:07:50.273Z,94697.00
2023-05-22T04:08:50.278Z,94697.00
2023-05-22T04:09:50.337Z,94699.00
2023-05-22T04:10:50.351Z,94695.00
2023-05-22T04:11:50.360Z,94699.00
2023-05-22T04:12:50.379Z,94695.00
2023-05-22T04:13:50.430Z,94697.00
2023-05-22T04:14:50.470Z,94695.00
2023-05-22T04:15:50.523Z,94697.00
2023-05-22T04:16:50.720Z,94697.00
2023-05-22T04:17:50.644Z,94701.00
2023-05-22T04:18:50.671Z,94705.00
2023-05-22T04:19:50.720Z,94705.00
2023-05-22T04:20:50.768Z,94707.00
2023-05-22T04:21:50.838Z,94709.00
2023-05-22T04:22:50.833Z,94705.00
2023-05-22T04:23:50.892Z,94703.00
2023-05-22T04:24:50.903Z,94703.00
2023-05-22T04:25:50.956Z,94705.00
2023-05-22T04:26:50.963Z,94701.00
2023-05-22T04:27:51.033Z,94709.00
2023-05-22T04:28:51.033Z,94709.00
2023-05-22T04:29:51.033Z,94711.00
2023-05-22T04:30:51.083Z,94689.00
2023-05-22T04:31:51.048Z,94687.00
2023-05-22T04:32:51.105Z,94693.00
2023-05-22T04:33:51.120Z,94693.00
2023-05-22T04:34:51.228Z,94689.00
2023-05-22T04:35:51.183Z,94691.00
2023-05-22T04:36:51.250Z,94691.00
2023-05-22T04:37:51.258Z,94695.00
2023-05-22T04:38:51.258Z,94693.00
2023-05-22T04:39:51.275Z,94695.00
2023-05-22T04:40:51.274Z,94693.00
2023-05-22T04:41:51.274Z,94693.00
2023-05-22T04:42:51.288Z,94695.00
2023-05-22T04:43:51.401Z,94697.00
2023-05-22T04:44:51.447Z,94691.00
2023-05-22T04:45:51.476Z,94693.00
2023-05-22T04:46:51.570Z,94697.00
2023-05-22T04:47:51.612Z,94699.00
2023-05-22T04:48:51.581Z,94699.00
2023-05-22T04:49:51.588Z,94701.00
2023-05-22T04:50:51.645Z,94701.00
2023-05-22T04:51:51.657Z,94697.00
2023-05-22T04:52:51.679Z,94697.00
2023-05-22T04:53:51.707Z,94697.00
2023-05-22T04:54:51.732Z,94699.00
2023-05-22T04:55:51.679Z,94699.00
2023-05-22T04:56:51.729Z,94699.00
2023-05-22T04:57:51.740Z,94654.00
2023-05-22T04:58:51.753Z,94658.00
2023-05-22T04:59:51.756Z,94658.00
2023-05-22T05:00:51.766Z,94662.00
2023-05-22T05:01:51.765Z,94662.00
2023-05-22T05:02:51.985Z,94664.00
2023-05-22T05:03:51.904Z,94666.00
2023-05-22T05:04:51.890Z,94666.00
2023-05-22T05:05:51.901Z,94664.00
2023-05-22T05:06:51.960Z,94670.00
2023-05-22T05:07:51.971Z,94666.00
2023-05-22T05:08:52.018Z,94672.00
2023-05-22T05:09:52.097Z,94672.00
2023-05-22T05:10:52.142Z,94670.00
2023-05-22T05:11:52.173Z,94672.00
2023-05-22T05:12:52.176Z,94670.00
2023-05-22T05:13:52.211Z,94670.00
2023-05-22T05:14:52.215Z,94670.00
2023-05-22T05:15:52.259Z,94670.00
2023-05-22T05:16:52.318Z,94672.00
2023-05-22T05:17:52.392Z,94674.00
2023-05-22T05:18:52.362Z,94672.00
2023-05-22T05:19:52.295Z,94670.00
2023-05-22T05:20:52.318Z,94674.00
2023-05-22T05:21:52.314Z,94672.00
2023-05-22T05:22:52.311Z,94672.00
2023-05-22T05:23:52.341Z,94670.00
2023-05-22T05:24:52.403Z,94670.00
2023-05-22T05:25:52.371Z,94672.00
2023-05-22T05:26:52.417Z,94676.00
2023-05-22T05:27:52.380Z,94676.00
2023-05-22T05:28:52.409Z,94705.00
2023-05-22T05:29:52.419Z,94707.00
2023-05-22T05:30:52.532Z,94707.00
2023-05-22T05:31:52.563Z,94705.00
2023-05-22T05:32:52.590Z,94701.00
2023-05-22T05:33:52.529Z,94701.00
2023-05-22T05:34:52.582Z,94697.00
2023-05-22T05:35:52.681Z,94699.00
2023-05-22T05:36:52.661Z,94697.00
2023-05-22T05:37:52.755Z,94699.00
2023-05-22T05:38:52.802Z,94701.00
2023-05-22T05:39:52.846Z,94699.00
2023-05-22T05:40:52.996Z,94699.00
2023-05-22T05:41:52.974Z,94693.00
2023-05-22T05:42:52.968Z,94691.00
2023-05-22T05:43:53.096Z,94691.00
2023-05-22T05:44:53.092Z,94691.00
2023-05-22T05:45:53.270Z,94687.00
2023-05-22T05:46:53.247Z,94693.00
2023-05-22T05:47:53.304Z,94693.00
2023-05-22T05:48:53.290Z,94695.00
2023-05-22T05:49:53.352Z,94695.00
2023-05-22T05:50:53.339Z,94693.00
2023-05-22T05:51:53.491Z,94689.00
2023-05-22T05:52:53.350Z,94691.00
2023-05-22T05:53:53.356Z,94693.00
2023-05-22T05:54:53.343Z,94697.00
2023-05-22T05:55:53.322Z,94717.00
2023-05-22T05:56:53.354Z,94717.00
2023-05-22T05:57:53.381Z,94719.00
2023-05-22T05:58:53.448Z,94721.00
2023-05-22T05:59:53.445Z,94721.00
2023-05-22T06:00:53.462Z,94723.00
2023-05-22T06:01:53.476Z,94723.00
2023-05-22T06:02:53.598Z,94725.00
2023-05-22T06:03:53.825Z,94725.00
2023-05-22T06:04:53.696Z,94723.00
2023-05-22T06:05:53.669Z,94723.00
2023-05-22T06:06:53.794Z,94723.00
2023-05-22T06:07:53.744Z,94723.00
2023-05-22T06:08:53.830Z,94726.00
2023-05-22T06:09:53.884Z,94728.00
2023-05-22T06:10:53.986Z,94725.00
2023-05-22T06:11:54.002Z,94726.00
2023-05-22T06:12:54.063Z,94726.00
2023-05-22T06:13:54.111Z,94725.00
2023-05-22T06:14:54.183Z,94728.00
2023-05-22T06:15:54.296Z,94725.00
2023-05-22T06:16:54.529Z,94725.00
2023-05-22T06:17:54.440Z,94723.00
2023-05-22T06:18:54.518Z,94723.00
2023-05-22T06:19:54.514Z,94723.00
2023-05-22T06:20:54.520Z,94721.00
2023-05-22T06:21:54.626Z,94723.00
2023-05-22T06:22:54.702Z,94723.00
2023-05-22T06:23:54.750Z,94723.00
2023-05-22T06:24:54.899Z,94725.00
2023-05-22T06:25:54.827Z,94723.00
2023-05-22T06:26:54.887Z,94721.00
2023-05-22T06:27:54.963Z,94721.00
2023-05-22T06:28:54.989Z,94719.00
2023-05-22T06:29:56.331Z,94721.00
2023-05-22T06:30:55.135Z,94723.00
2023-05-22T06:31:55.203Z,94719.00
2023-05-22T06:32:55.257Z,94721.00
2023-05-22T06:33:55.458Z,94721.00
2023-05-22T06:34:55.369Z,94717.00
2023-05-22T06:35:55.421Z,94719.00
2023-05-22T06:36:55.466Z,94699.00
2023-05-22T06:37:55.576Z,94703.00
2023-05-22T06:38:55.620Z,94699.00
2023-05-22T06:39:56.361Z,94699.00
2023-05-22T06:40:55.586Z,94697.00
2023-05-22T06:41:55.656Z,94699.00
2023-05-22T06:42:55.783Z,94697.00
2023-05-22T06:43:55.861Z,94695.00
2023-05-22T06:44:56.044Z,94693.00
2023-05-22T06:45:55.928Z,94717.00
2023-05-22T06:46:55.961Z,94713.00
2023-05-22T06:47:56.462Z,94707.00
2023-05-22T06:48:56.073Z,94711.00
2023-05-22T06:49:56.096Z,94707.00
2023-05-22T06:50:56.138Z,94709.00
2023-05-22T06:51:56.165Z,94707.00
2023-05-22T06:52:56.294Z,94709.00
2023-05-22T06:53:56.337Z,94709.00
2023-05-22T06:54:56.385Z,94705.00
2023-05-22T06:55:56.348Z,94685.00
2023-05-22T06:56:56.410Z,94683.00
2023-05-22T06:57:56.978Z,94701.00
2023-05-22T06:58:56.570Z,94705.00
2023-05-22T06:59:56.633Z,94705.00
2023-05-22T07:00:56.650Z,94705.00
2023-05-22T07:01:56.742Z,94701.00
2023-05-22T07:02:56.862Z,94699.00
2023-05-22T07:03:56.934Z,94701.00
2023-05-22T07:04:56.837Z,94699.00
2023-05-22T07:05:57.001Z,94701.00
2023-05-22T07:06:56.934Z,94697.00
2023-05-22T07:07:57.005Z,94695.00
2023-05-22T07:08:57.088Z,94695.00
2023-05-22T07:09:57.160Z,94697.00
2023-05-22T07:10:57.272Z,94693.00
2023-05-22T07:11:57.231Z,94693.00
2023-05-22T07:12:57.303Z,94691.00
2023-05-22T07:13:57.434Z,94693.00
2023-05-22T07:14:57.437Z,94691.00
2023-05-22T07:15:57.560Z,94691.00
2023-05-22T07:16:57.606Z,94693.00
2023-05-22T07:17:57.699Z,94689.00
2023-05-22T07:18:57.775Z,94689.00
2023-05-22T07:19:57.710Z,94691.00
2023-05-22T07:20:57.813Z,94689.00
2023-05-22T07:21:57.833Z,94691.00
2023-05-22T07:22:57.944Z,94687.00
2023-05-22T07:23:57.945Z,94687.00
2023-05-22T07:24:58.055Z,94687.00
2023-05-22T07:25:58.075Z,94687.00
2023-05-22T07:26:58.155Z,94683.00
2023-05-22T07:27:58.688Z,94683.00
2023-05-22T07:28:58.475Z,94685.00
2023-05-22T07:29:58.460Z,94683.00
2023-05-22T07:30:58.391Z,94681.00
2023-05-22T07:31:58.588Z,94666.00
2023-05-22T07:32:59.039Z,94664.00
2023-05-22T07:33:58.653Z,94664.00
2023-05-22T07:34:59.874Z,94664.00
2023-05-22T07:35:58.752Z,94664.00
2023-05-22T07:36:58.782Z,94664.00
2023-05-22T07:37:58.844Z,94662.00
2023-05-22T07:38:58.959Z,94660.00
2023-05-22T07:39:59.019Z,94660.00
2023-05-22T07:40:59.061Z,94658.00
2023-05-22T07:41:59.563Z,94654.00
2023-05-22T07:42:59.260Z,94652.00
2023-05-22T07:43:59.184Z,94652.00
2023-05-22T07:44:59.298Z,94648.00
2023-05-22T07:45:59.284Z,94650.00
2023-05-22T07:46:59.325Z,94648.00
2023-05-22T07:48:00.577Z,94648.00
2023-05-22T07:48:59.539Z,94648.00
2023-05-22T07:49:59.545Z,94644.00
2023-05-22T07:50:59.526Z,94644.00
2023-05-22T07:51:59.561Z,94644.00
2023-05-22T07:52:59.629Z,94662.00
2023-05-22T07:54:59.741Z,94658.00
2023-05-22T07:55:59.676Z,94660.00
2023-05-22T07:56:59.768Z,94658.00
2023-05-22T07:57:59.761Z,94658.00
2023-05-22T07:58:59.929Z,94656.00
2023-05-22T07:59:59.923Z,94656.00
2023-05-22T08:00:59.878Z,94656.00
2023-05-22T08:01:59.914Z,94654.00
2023-05-22T08:03:00.204Z,94629.00
2023-05-22T08:04:00.142Z,94627.00
2023-05-22T08:05:00.571Z,94623.00
2023-05-22T08:06:00.481Z,94621.00
2023-05-22T08:07:00.110Z,94625.00
2023-05-22T08:08:00.153Z,94625.00
2023-05-22T08:09:00.171Z,94623.00
2023-05-22T08:10:00.228Z,94623.00
2023-05-22T08:11:04.090Z,94617.00
2023-05-22T08:12:00.298Z,94619.00
2023-05-22T08:13:00.293Z,94619.00
2023-05-22T08:14:00.201Z,94613.00
2023-05-22T08:15:00.224Z,94615.00
2023-05-22T08:16:01.371Z,94642.00
2023-05-22T08:17:00.231Z,94631.00
2023-05-22T08:18:00.260Z,94640.00
2023-05-22T08:19:00.288Z,94633.00
2023-05-22T08:20:00.357Z,94633.00
2023-05-22T08:21:00.230Z,94633.00
2023-05-22T08:22:00.164Z,94631.00
2023-05-22T08:23:00.128Z,94599.00
2023-05-22T08:24:00.153Z,94629.00
2023-05-22T08:25:00.478Z,94607.00
2023-05-22T08:26:00.162Z,94607.00
2023-05-22T08:27:00.119Z,94605.00
2023-05-22T08:28:00.112Z,94605.00
2023-05-22T08:29:00.149Z,94605.00
2023-05-22T08:30:00.544Z,94605.00
2023-05-22T08:31:00.118Z,94605.00
2023-05-22T08:32:00.201Z,94603.00
2023-05-22T08:33:00.226Z,94597.00
2023-05-22T08:34:00.185Z,94599.00
2023-05-22T08:35:00.519Z,94597.00
2023-05-22T08:36:00.047Z,94599.00
2023-05-22T08:37:00.077Z,94593.00
2023-05-22T08:38:00.119Z,94595.00
2023-05-22T08:39:00.136Z,94595.00
2023-05-22T08:40:00.238Z,94589.00
2023-05-22T08:41:00.211Z,94589.00
2023-05-22T08:42:00.194Z,94585.00
2023-05-22T08:43:00.219Z,94587.00
2023-05-22T08:44:00.212Z,94583.00
2023-05-22T08:45:00.301Z,94585.00
2023-05-22T08:46:00.482Z,94583.00
2023-05-22T08:47:00.502Z,94579.00
2023-05-22T08:48:00.717Z,94581.00
2023-05-22T08:49:00.458Z,94581.00
2023-05-22T08:50:00.506Z,94578.00
2023-05-22T08:51:00.544Z,94576.00
2023-05-22T08:52:00.554Z,94574.00
2023-05-22T08:53:00.644Z,94572.00
2023-05-22T08:54:00.648Z,94568.00
2023-05-22T08:55:00.692Z,94568.00
2023-05-22T08:56:00.828Z,94568.00
2023-05-22T08:57:00.768Z,94568.00
2023-05-22T08:58:00.805Z,94564.00
2023-05-22T08:59:00.984Z,94568.00
2023-05-22T09:00:00.916Z,94566.00
2023-05-22T09:01:00.893Z,94564.00
2023-05-22T09:02:00.913Z,94564.00
2023-05-22T09:03:01.011Z,94562.00
2023-05-22T09:04:01.213Z,94560.00
2023-05-22T09:05:00.977Z,94560.00
2023-05-22T09:06:01.000Z,94558.00
2023-05-22T09:07:01.497Z,94556.00
2023-05-22T09:08:15.867Z,94556.00
2023-05-22T09:09:02.052Z,94556.00
2023-05-22T09:10:01.040Z,94552.00
2023-05-22T09:11:01.052Z,94552.00
2023-05-22T09:12:01.555Z,94546.00
2023-05-22T09:13:01.118Z,94550.00
2023-05-22T09:14:01.031Z,94548.00
2023-05-22T09:15:01.043Z,94542.00
2023-05-22T09:16:01.044Z,94540.00
2023-05-22T09:17:01.076Z,94542.00
2023-05-22T09:18:01.062Z,94540.00
2023-05-22T09:19:00.988Z,94540.00
2023-05-22T09:20:00.985Z,94539.00
2023-05-22T09:21:00.988Z,94539.00
2023-05-22T09:22:00.942Z,94539.00
2023-05-22T09:23:01.012Z,94537.00
2023-05-22T09:24:01.119Z,94535.00
2023-05-22T09:25:01.181Z,94537.00
2023-05-22T09:26:00.967Z,94535.00
2023-05-22T09:27:01.007Z,94535.00
2023-05-22T09:28:00.885Z,94535.00
2023-05-22T09:29:01.050Z,94537.00
2023-05-22T09:30:01.079Z,94539.00
2023-05-22T09:31:03.830Z,94537.00
2023-05-22T09:32:00.877Z,94535.00
2023-05-22T09:33:00.967Z,94535.00
2023-05-22T09:34:00.880Z,94531.00
2023-05-22T09:35:01.091Z,94531.00
2023-05-22T09:36:00.909Z,94531.00
2023-05-22T09:37:00.872Z,94529.00
2023-05-22T09:38:00.929Z,94525.00
2023-05-22T09:39:00.828Z,94527.00
2023-05-22T09:40:01.032Z,94523.00
2023-05-22T09:41:01.051Z,94525.00
2023-05-22T09:42:00.854Z,94523.00
2023-05-22T09:43:00.824Z,94525.00
2023-05-22T09:44:02.151Z,94523.00
2023-05-22T09:45:00.818Z,94519.00
2023-05-22T09:46:01.008Z,94519.00
2023-05-22T09:47:00.850Z,94519.00
2023-05-22T09:48:00.894Z,94517.00
2023-05-22T09:49:00.847Z,94515.00
2023-05-22T09:50:00.803Z,94517.00
2023-05-22T09:51:00.801Z,94517.00
2023-05-22T09:52:00.899Z,94515.00
2023-05-22T09:53:02.373Z,94515.00
2023-05-22T09:54:01.015Z,94517.00
2023-05-22T09:55:00.729Z,94515.00
2023-05-22T09:56:00.702Z,94513.00
2023-05-22T09:57:00.723Z,94513.00
2023-05-22T09:58:00.707Z,94513.00
2023-05-22T09:59:00.689Z,94511.00
2023-05-22T10:00:00.753Z,94511.00
2023-05-22T10:01:00.742Z,94507.00
2023-05-22T10:02:00.822Z,94511.00
2023-05-22T10:03:00.863Z,94507.00
2023-05-22T10:04:00.901Z,94507.00
2023-05-22T10:05:01.002Z,94507.00
2023-05-22T10:06:01.012Z,94503.00
2023-05-22T10:07:01.066Z,94503.00
2023-05-22T10:08:01.089Z,94503.00
2023-05-22T10:09:01.191Z,94501.00
2023-05-22T10:10:01.259Z,94499.00
2023-05-22T10:11:01.261Z,94497.00
2023-05-22T10:12:01.349Z,94497.00
2023-05-22T10:13:01.411Z,94497.00
2023-05-22T10:14:01.465Z,94491.00
2023-05-22T10:15:01.514Z,94495.00
2023-05-22T10:16:03.556Z,94491.00
2023-05-22T10:17:01.672Z,94487.00
2023-05-22T10:18:01.776Z,94491.00
2023-05-22T10:19:01.830Z,94489.00
2023-05-22T10:20:02.149Z,94491.00
2023-05-22T10:21:01.888Z,94487.00
2023-05-22T10:22:01.970Z,94485.00
2023-05-22T10:23:02.655Z,94484.00
2023-05-22T10:24:02.019Z,94482.00
2023-05-22T10:25:02.532Z,94482.00
2023-05-22T10:26:02.122Z,94484.00
2023-05-22T10:27:02.199Z,94482.00
2023-05-22T10:28:02.251Z,94482.00
2023-05-22T10:29:02.359Z,94480.00
2023-05-22T10:30:02.555Z,94480.00
2023-05-22T10:31:02.396Z,94478.00
2023-05-22T10:32:02.482Z,94480.00
2023-05-22T10:33:02.635Z,94478.00
2023-05-22T10:34:02.619Z,94478.00
2023-05-22T10:35:02.606Z,94476.00
2023-05-22T10:36:02.626Z,94474.00
2023-05-22T10:37:13.138Z,94472.00
2023-05-22T10:38:04.053Z,94472.00
2023-05-22T10:39:02.751Z,94470.00
2023-05-22T10:40:02.644Z,94470.00
2023-05-22T10:41:02.662Z,94468.00
2023-05-22T10:42:02.657Z,94466.00
2023-05-22T10:43:03.081Z,94464.00
2023-05-22T10:44:02.641Z,94462.00
2023-05-22T10:45:02.632Z,94460.00
2023-05-22T10:46:02.657Z,94462.00
2023-05-22T10:47:02.687Z,94460.00
2023-05-22T10:48:03.138Z,94456.00
2023-05-22T10:49:02.809Z,94456.00
2023-05-22T10:50:02.865Z,94456.00
2023-05-22T10:51:02.897Z,94452.00
2023-05-22T10:52:02.905Z,94454.00
2023-05-22T10:53:02.967Z,94448.00
2023-05-22T10:54:03.016Z,94450.00
2023-05-22T10:55:03.092Z,94448.00
2023-05-22T10:56:03.166Z,94446.00
2023-05-22T10:57:03.091Z,94444.00
2023-05-22T10:58:05.120Z,94448.00
2023-05-22T10:59:03.184Z,94444.00
2023-05-22T11:00:03.194Z,94446.00
2023-05-22T11:01:03.285Z,94444.00
2023-05-22T11:02:03.347Z,94444.00
2023-05-22T11:03:10.069Z,94440.00
2023-05-22T11:04:04.574Z,94442.00
2023-05-22T11:05:03.520Z,94435.00
2023-05-22T11:06:03.583Z,94435.00
2023-05-22T11:07:03.324Z,94437.00
2023-05-22T11:08:03.272Z,94435.00
2023-05-22T11:09:03.305Z,94431.00
2023-05-22T11:10:03.300Z,94429.00
2023-05-22T11:11:04.864Z,94429.00
2023-05-22T11:12:03.265Z,94427.00
2023-05-22T11:13:03.274Z,94427.00
2023-05-22T11:14:03.248Z,94429.00
2023-05-22T11:15:03.287Z,94427.00
2023-05-22T11:16:03.234Z,94425.00
2023-05-22T11:17:03.364Z,94429.00
2023-05-22T11:18:03.258Z,94448.00
2023-05-22T11:20:03.317Z,94425.00
2023-05-22T11:21:03.225Z,94423.00
2023-05-22T11:22:03.257Z,94419.00
2023-05-22T11:23:03.217Z,94421.00
2023-05-22T11:24:03.594Z,94421.00
2023-05-22T11:25:03.294Z,94421.00
2023-05-22T11:26:03.282Z,94417.00
2023-05-22T11:27:03.415Z,94415.00
2023-05-22T11:28:03.308Z,94417.00
2023-05-22T11:29:03.390Z,94421.00
2023-05-22T11:30:03.372Z,94415.00
2023-05-22T11:31:03.512Z,94417.00
2023-05-22T11:32:03.460Z,94417.00
2023-05-22T11:33:03.521Z,94417.00
2023-05-22T11:34:03.504Z,94415.00
2023-05-22T11:35:03.637Z,94415.00
2023-05-22T11:36:03.630Z,94411.00
2023-05-22T11:37:03.625Z,94407.00
2023-05-22T11:38:03.682Z,94411.00
2023-05-22T11:39:03.761Z,94407.00
2023-05-22T11:40:03.769Z,94407.00
2023-05-22T11:41:03.806Z,94401.00
2023-05-22T11:42:03.890Z,94401.00
2023-05-22T11:43:03.936Z,94397.00
2023-05-22T11:44:04.001Z,94399.00
2023-05-22T11:45:04.054Z,94395.00
2023-05-22T11:46:04.190Z,94395.00
2023-05-22T11:47:04.154Z,94399.00